Time;durP1;ratioP1;P1;durP2;ratioP2;P2;SDS_P1;SDS_P2;PMS_P1;PMS_P2;Temp;Humidity;BMP_temperature;BMP_pressure;BME280_temperature;BME280_humidity;BME280_pressure;Samples;Min_cycle;Max_cycle;Signal;HPM_P1;HPM_P2
2023/05/28 00:01:39;;;;;;;22.02;5.63;;;;;;;;;;4944113;28;20039;-75
2023/05/28 00:04:05;;;;;;;20.35;5.40;;;;;;;;;;4940956;28;20038;-75
2023/05/28 00:06:31;;;;;;;22.20;5.97;;;;;;;;;;4944877;29;20031;-75
2023/05/28 00:08:57;;;;;;;18.50;5.85;;;;;;;;;;4946336;29;20038;-75
2023/05/28 00:11:23;;;;;;;19.27;5.78;;;;;;;;;;4939611;28;20051;-75
2023/05/28 00:13:49;;;;;;;24.15;5.82;;;;;;;;;;4937269;28;20173;-76
2023/05/28 00:16:15;;;;;;;21.55;5.10;;;;;;;;;;4941334;28;20561;-75
2023/05/28 00:18:41;;;;;;;22.65;6.55;;;;;;;;;;4944342;28;20381;-74
2023/05/28 00:21:07;;;;;;;17.15;5.65;;;;;;;;;;4944333;29;20039;-75
2023/05/28 00:23:33;;;;;;;14.70;5.00;;;;;;;;;;4942673;28;20036;-76
2023/05/28 00:26:00;;;;;;;20.05;5.40;;;;;;;;;;4938434;28;20122;-75
2023/05/28 00:28:25;;;;;;;15.32;5.38;;;;;;;;;;4953436;28;20034;-75
2023/05/28 00:30:52;;;;;;;17.52;5.68;;;;;;;;;;4944375;29;20510;-75
2023/05/28 00:33:18;;;;;;;22.75;6.70;;;;;;;;;;4944291;28;20194;-75
2023/05/28 00:35:44;;;;;;;23.60;6.47;;;;;;;;;;4943822;28;20229;-75
2023/05/28 00:38:10;;;;;;;24.38;5.80;;;;;;;;;;4955853;28;22747;-75
2023/05/28 00:40:36;;;;;;;15.52;5.43;;;;;;;;;;4941429;29;20031;-75
2023/05/28 00:43:02;;;;;;;14.80;5.00;;;;;;;;;;4942207;28;20695;-75
2023/05/28 00:45:28;;;;;;;17.98;4.50;;;;;;;;;;4943533;29;20031;-75
2023/05/28 00:47:55;;;;;;;19.63;5.20;;;;;;;;;;4942173;29;20035;-75
2023/05/28 00:50:21;;;;;;;16.50;5.45;;;;;;;;;;4940305;28;20500;-75
2023/05/28 00:52:48;;;;;;;13.73;4.95;;;;;;;;;;4945950;28;20397;-75
2023/05/28 00:55:15;;;;;;;15.95;5.93;;;;;;;;;;4942892;28;20039;-75
2023/05/28 00:57:41;;;;;;;16.88;5.28;;;;;;;;;;4939110;28;20050;-75
2023/05/28 01:00:11;;;;;;;20.73;5.50;;;;;;;;;;4942548;28;20039;-75
2023/05/28 01:02:37;;;;;;;13.60;5.40;;;;;;;;;;4954623;28;20480;-75
2023/05/28 01:05:03;;;;;;;23.75;6.20;;;;;;;;;;4956118;28;20166;-74
2023/05/28 01:07:29;;;;;;;25.20;7.57;;;;;;;;;;4943399;28;20160;-75
2023/05/28 01:09:56;;;;;;;20.77;6.60;;;;;;;;;;4941417;28;20141;-75
2023/05/28 01:12:23;;;;;;;20.83;6.88;;;;;;;;;;4940884;29;20094;-74
2023/05/28 01:14:49;;;;;;;18.50;6.47;;;;;;;;;;4940640;28;20113;-75
2023/05/28 01:17:15;;;;;;;21.98;5.68;;;;;;;;;;4942049;28;20031;-75
2023/05/28 01:19:42;;;;;;;18.63;7.07;;;;;;;;;;4940886;29;20032;-74
2023/05/28 01:22:08;;;;;;;19.38;5.55;;;;;;;;;;4941184;29;20473;-74
2023/05/28 01:24:39;;;;;;;22.70;6.25;;;;;;;;;;4940155;28;20118;-75
2023/05/28 01:27:05;;;;;;;13.73;5.35;;;;;;;;;;4941737;28;20518;-74
2023/05/28 01:29:31;;;;;;;17.98;6.47;;;;;;;;;;4940804;28;20043;-74
2023/05/28 01:31:57;;;;;;;21.42;7.05;;;;;;;;;;4941826;29;20537;-74
2023/05/28 01:34:24;;;;;;;16.80;6.20;;;;;;;;;;4940142;28;20035;-74
2023/05/28 01:36:58;;;;;;;20.05;6.18;;;;;;;;;;4941089;28;20043;-74
2023/05/28 01:39:25;;;;;;;27.70;6.70;;;;;;;;;;4941792;28;20525;-75
2023/05/28 01:41:52;;;;;;;27.65;7.63;;;;;;;;;;4942306;28;20046;-75
2023/05/28 01:44:18;;;;;;;16.50;6.30;;;;;;;;;;4941756;28;20033;-75
2023/05/28 01:46:46;;;;;;;22.17;6.30;;;;;;;;;;4941512;29;20102;-75
2023/05/28 01:49:12;;;;;;;20.20;5.88;;;;;;;;;;4939552;28;20039;-75
2023/05/28 01:51:39;;;;;;;19.42;6.28;;;;;;;;;;4940531;28;20549;-75
2023/05/28 01:54:05;;;;;;;26.75;8.40;;;;;;;;;;4944001;28;20039;-75
2023/05/28 01:56:31;;;;;;;19.65;7.22;;;;;;;;;;4934635;28;20062;-76
2023/05/28 01:58:57;;;;;;;30.27;8.82;;;;;;;;;;4954611;28;20023;-74
2023/05/28 02:01:30;;;;;;;17.83;6.57;;;;;;;;;;4953981;28;20106;-75
2023/05/28 02:03:57;;;;;;;16.13;6.15;;;;;;;;;;4942673;29;20393;-75
2023/05/28 02:06:24;;;;;;;14.48;5.82;;;;;;;;;;4939786;28;20031;-75
2023/05/28 02:08:50;;;;;;;23.52;6.60;;;;;;;;;;4956872;28;20126;-76
2023/05/28 02:11:16;;;;;;;16.67;5.75;;;;;;;;;;4940051;28;20046;-75
2023/05/28 02:13:43;;;;;;;22.05;6.75;;;;;;;;;;4937776;28;20123;-75
2023/05/28 02:16:10;;;;;;;19.98;6.47;;;;;;;;;;4940342;28;20130;-75
2023/05/28 02:18:37;;;;;;;18.73;6.70;;;;;;;;;;4940560;28;20034;-75
2023/05/28 02:21:03;;;;;;;23.80;6.32;;;;;;;;;;4938344;29;20046;-75
2023/05/28 02:23:29;;;;;;;20.67;6.60;;;;;;;;;;4938310;28;20039;-75
2023/05/28 02:25:55;;;;;;;22.88;7.03;;;;;;;;;;4940575;28;20040;-75
2023/05/28 02:28:21;;;;;;;17.35;5.53;;;;;;;;;;4938864;28;20046;-74
2023/05/28 02:30:47;;;;;;;21.70;6.32;;;;;;;;;;4936974;28;20047;-74
2023/05/28 02:33:13;;;;;;;23.83;7.05;;;;;;;;;;4941107;28;20353;-74
2023/05/28 02:35:39;;;;;;;20.55;5.95;;;;;;;;;;4940897;28;20056;-74
2023/05/28 02:38:05;;;;;;;23.00;6.57;;;;;;;;;;4940135;29;20170;-75
2023/05/28 02:40:31;;;;;;;17.42;6.82;;;;;;;;;;4938536;28;20824;-74
2023/05/28 02:42:57;;;;;;;17.45;5.85;;;;;;;;;;4940238;28;20044;-75
2023/05/28 02:45:23;;;;;;;18.20;7.35;;;;;;;;;;4940803;28;20054;-75
2023/05/28 02:47:49;;;;;;;19.27;6.38;;;;;;;;;;4939846;28;20106;-75
2023/05/28 02:50:15;;;;;;;17.02;5.50;;;;;;;;;;4937729;28;20797;-75
2023/05/28 02:52:41;;;;;;;19.90;6.07;;;;;;;;;;4941375;28;20079;-75
2023/05/28 02:55:08;;;;;;;18.13;7.20;;;;;;;;;;4936925;28;20084;-74
2023/05/28 02:57:34;;;;;;;26.00;6.40;;;;;;;;;;4948327;28;20043;-74
2023/05/28 03:00:00;;;;;;;16.50;6.00;;;;;;;;;;4940463;28;20031;-74
2023/05/28 03:02:26;;;;;;;22.45;6.15;;;;;;;;;;4921509;29;20050;-74
2023/05/28 03:04:53;;;;;;;22.10;6.72;;;;;;;;;;4957813;28;20031;-75
2023/05/28 03:07:19;;;;;;;23.65;6.32;;;;;;;;;;4939526;28;20030;-75
2023/05/28 03:09:45;;;;;;;19.08;7.10;;;;;;;;;;4943153;29;20485;-75
2023/05/28 03:12:11;;;;;;;18.52;5.80;;;;;;;;;;4940760;29;20106;-75
2023/05/28 03:14:37;;;;;;;18.67;5.97;;;;;;;;;;4938138;28;20039;-74
2023/05/28 03:17:03;;;;;;;26.27;5.85;;;;;;;;;;4941708;29;20416;-75
2023/05/28 03:19:29;;;;;;;23.48;7.65;;;;;;;;;;4941756;29;20047;-75
2023/05/28 03:21:55;;;;;;;22.33;5.85;;;;;;;;;;4939097;28;20045;-75
2023/05/28 03:24:21;;;;;;;24.27;6.45;;;;;;;;;;4940517;28;20065;-75
2023/05/28 03:26:47;;;;;;;23.65;7.35;;;;;;;;;;4939115;28;20038;-75
2023/05/28 03:29:13;;;;;;;14.50;5.80;;;;;;;;;;4941343;28;20323;-74
2023/05/28 03:31:44;;;;;;;16.63;5.47;;;;;;;;;;4940505;28;20070;-74
2023/05/28 03:34:10;;;;;;;19.45;5.85;;;;;;;;;;4939355;29;20408;-74
2023/05/28 03:36:37;;;;;;;17.38;6.45;;;;;;;;;;4952748;28;20047;-74
2023/05/28 03:39:04;;;;;;;20.60;6.32;;;;;;;;;;4943123;28;20042;-75
2023/05/28 03:41:30;;;;;;;22.45;6.65;;;;;;;;;;4944838;28;20103;-74
2023/05/28 03:43:56;;;;;;;18.48;5.93;;;;;;;;;;4941631;29;21498;-75
2023/05/28 03:46:22;;;;;;;17.30;5.95;;;;;;;;;;4945664;28;20086;-75
2023/05/28 03:48:48;;;;;;;20.17;6.70;;;;;;;;;;4942115;29;20059;-75
2023/05/28 03:51:14;;;;;;;17.63;7.22;;;;;;;;;;4943593;28;20051;-74
2023/05/28 03:53:40;;;;;;;17.40;6.10;;;;;;;;;;4944218;28;20130;-74
2023/05/28 03:56:06;;;;;;;21.60;6.28;;;;;;;;;;4936403;28;20848;-74
2023/05/28 03:58:32;;;;;;;26.08;6.28;;;;;;;;;;4936772;28;20046;-75
2023/05/28 04:00:58;;;;;;;22.13;7.30;;;;;;;;;;4943686;28;20047;-74
2023/05/28 04:03:24;;;;;;;24.50;7.10;;;;;;;;;;4944265;29;20036;-75
2023/05/28 04:05:51;;;;;;;18.92;6.57;;;;;;;;;;4944946;29;20102;-75
2023/05/28 04:08:18;;;;;;;25.15;7.28;;;;;;;;;;4940505;28;20035;-75
2023/05/28 04:10:44;;;;;;;16.45;6.10;;;;;;;;;;4958999;28;20397;-75
2023/05/28 04:13:10;;;;;;;17.13;6.40;;;;;;;;;;4938798;28;20046;-75
2023/05/28 04:15:36;;;;;;;19.77;7.15;;;;;;;;;;4941911;29;20556;-74
2023/05/28 04:18:02;;;;;;;22.73;6.65;;;;;;;;;;4944931;29;20034;-75
2023/05/28 04:20:29;;;;;;;20.77;6.30;;;;;;;;;;4942303;28;20062;-75
2023/05/28 04:22:55;;;;;;;21.73;7.88;;;;;;;;;;4943054;28;20040;-74
2023/05/28 04:25:21;;;;;;;22.77;7.10;;;;;;;;;;4942390;28;20039;-75
2023/05/28 04:27:47;;;;;;;18.35;7.50;;;;;;;;;;4944480;29;20397;-74
2023/05/28 04:30:13;;;;;;;18.58;7.43;;;;;;;;;;4938695;28;20782;-74
2023/05/28 04:32:39;;;;;;;21.08;6.97;;;;;;;;;;4942047;28;20043;-75
2023/05/28 04:35:08;;;;;;;16.50;6.53;;;;;;;;;;4936895;29;20039;-75
2023/05/28 04:37:36;;;;;;;22.80;6.35;;;;;;;;;;4945517;29;20035;-75
2023/05/28 04:40:04;;;;;;;17.50;6.88;;;;;;;;;;4938953;28;20496;-72
2023/05/28 04:42:30;;;;;;;20.90;6.63;;;;;;;;;;4957676;28;20113;-72
2023/05/28 04:44:58;;;;;;;20.67;7.18;;;;;;;;;;4935864;28;20035;-74
2023/05/28 04:47:24;;;;;;;19.05;6.25;;;;;;;;;;4929499;28;20548;-74
2023/05/28 04:49:50;;;;;;;17.58;6.53;;;;;;;;;;4930733;29;20051;-73
2023/05/28 04:52:17;;;;;;;21.58;6.47;;;;;;;;;;4929305;28;20045;-74
2023/05/28 04:54:45;;;;;;;30.70;13.57;;;;;;;;;;4930200;28;20557;-75
2023/05/28 04:57:11;;;;;;;30.25;11.10;;;;;;;;;;4942040;28;20553;-74
2023/05/28 04:59:37;;;;;;;29.15;12.73;;;;;;;;;;4959549;28;20083;-74
2023/05/28 05:02:03;;;;;;;17.05;5.65;;;;;;;;;;4945355;28;20031;-73
2023/05/28 05:04:30;;;;;;;17.92;5.85;;;;;;;;;;4960354;28;20039;-73
2023/05/28 05:06:56;;;;;;;19.92;5.97;;;;;;;;;;4951299;28;20039;-73
2023/05/28 05:09:23;;;;;;;21.17;6.70;;;;;;;;;;4940823;28;20091;-73
2023/05/28 05:11:49;;;;;;;21.58;6.03;;;;;;;;;;4965307;28;20126;-73
2023/05/28 05:14:15;;;;;;;18.17;6.55;;;;;;;;;;4953679;28;20029;-73
2023/05/28 05:16:41;;;;;;;20.05;6.22;;;;;;;;;;4956959;28;20122;-73
2023/05/28 05:19:07;;;;;;;15.30;5.97;;;;;;;;;;4947937;28;20113;-74
2023/05/28 05:21:33;;;;;;;15.77;6.70;;;;;;;;;;4943643;28;20071;-75
2023/05/28 05:23:59;;;;;;;28.58;11.32;;;;;;;;;;4938798;28;20040;-73
2023/05/28 05:26:25;;;;;;;22.30;6.85;;;;;;;;;;4940524;28;20044;-74
2023/05/28 05:28:51;;;;;;;20.83;6.50;;;;;;;;;;4936312;28;20023;-73
2023/05/28 05:31:17;;;;;;;22.33;7.40;;;;;;;;;;4939752;28;20044;-75
2023/05/28 05:33:43;;;;;;;26.13;6.47;;;;;;;;;;4945943;28;20052;-74
2023/05/28 05:36:10;;;;;;;22.10;6.85;;;;;;;;;;4962346;28;20055;-74
2023/05/28 05:38:36;;;;;;;19.25;6.20;;;;;;;;;;4963135;28;20032;-74
2023/05/28 05:41:02;;;;;;;24.92;5.85;;;;;;;;;;4944930;29;20043;-75
2023/05/28 05:43:28;;;;;;;20.13;6.65;;;;;;;;;;4965860;28;20498;-74
2023/05/28 05:45:54;;;;;;;15.52;6.30;;;;;;;;;;4939401;28;20036;-74
2023/05/28 05:48:20;;;;;;;21.55;5.53;;;;;;;;;;4935938;28;20481;-74
2023/05/28 05:50:50;;;;;;;14.82;5.43;;;;;;;;;;4943974;28;20055;-74
2023/05/28 05:53:16;;;;;;;21.40;6.20;;;;;;;;;;4940786;28;20066;-75
2023/05/28 05:55:42;;;;;;;16.65;5.55;;;;;;;;;;4957134;28;22700;-75
2023/05/28 05:58:08;;;;;;;23.75;8.55;;;;;;;;;;4939844;28;20417;-74
2023/05/28 06:00:34;;;;;;;18.67;6.95;;;;;;;;;;4939311;28;20055;-75
2023/05/28 06:03:00;;;;;;;22.08;6.97;;;;;;;;;;4940359;28;20596;-76
2023/05/28 06:05:26;;;;;;;12.70;5.05;;;;;;;;;;4937237;29;20086;-76
2023/05/28 06:07:53;;;;;;;14.80;5.30;;;;;;;;;;4941700;28;20117;-75
2023/05/28 06:10:19;;;;;;;19.98;6.35;;;;;;;;;;4935806;28;20043;-75
2023/05/28 06:12:45;;;;;;;19.13;5.82;;;;;;;;;;4942277;28;20071;-75
2023/05/28 06:15:11;;;;;;;19.02;6.20;;;;;;;;;;4941225;28;20055;-75
2023/05/28 06:17:37;;;;;;;17.88;6.30;;;;;;;;;;4941522;28;21626;-74
2023/05/28 06:20:06;;;;;;;20.98;6.80;;;;;;;;;;4935089;28;20043;-75
2023/05/28 06:22:33;;;;;;;18.02;5.32;;;;;;;;;;4942649;28;20114;-75
2023/05/28 06:25:01;;;;;;;16.55;5.80;;;;;;;;;;4940959;29;20115;-75
2023/05/28 06:27:27;;;;;;;16.73;5.55;;;;;;;;;;4941884;29;20429;-75
2023/05/28 06:29:54;;;;;;;17.30;6.35;;;;;;;;;;4943690;28;20062;-75
2023/05/28 06:32:20;;;;;;;15.73;5.43;;;;;;;;;;4942144;28;20078;-75
2023/05/28 06:34:46;;;;;;;14.90;4.63;;;;;;;;;;4938908;28;20035;-75
2023/05/28 06:37:12;;;;;;;11.27;4.35;;;;;;;;;;4942624;28;20493;-75
2023/05/28 06:39:38;;;;;;;14.82;4.35;;;;;;;;;;4939029;28;20035;-75
2023/05/28 06:42:05;;;;;;;18.90;4.30;;;;;;;;;;4940146;28;20045;-75
2023/05/28 06:44:31;;;;;;;13.00;4.32;;;;;;;;;;4940404;28;20083;-75
2023/05/28 06:46:57;;;;;;;13.10;4.32;;;;;;;;;;4945042;28;20058;-76
2023/05/28 06:49:23;;;;;;;12.43;4.68;;;;;;;;;;4944261;29;20389;-76
2023/05/28 06:51:50;;;;;;;12.00;4.88;;;;;;;;;;4938799;28;20043;-76
2023/05/28 06:54:16;;;;;;;16.23;4.57;;;;;;;;;;4933687;28;20053;-76
2023/05/28 06:56:42;;;;;;;10.23;4.25;;;;;;;;;;4935578;28;20032;-75
2023/05/28 06:59:08;;;;;;;14.20;4.63;;;;;;;;;;4942225;28;20477;-76
2023/05/28 07:01:34;;;;;;;19.67;5.55;;;;;;;;;;4937184;28;20122;-75
2023/05/28 07:04:00;;;;;;;14.27;5.80;;;;;;;;;;4937045;28;20114;-77
2023/05/28 07:06:26;;;;;;;12.50;4.70;;;;;;;;;;4939105;28;20083;-76
2023/05/28 07:08:52;;;;;;;24.30;9.25;;;;;;;;;;4939353;28;20049;-75
2023/05/28 07:11:18;;;;;;;14.23;4.65;;;;;;;;;;4951683;28;20078;-77
2023/05/28 07:13:45;;;;;;;16.10;4.90;;;;;;;;;;4954915;29;20027;-76
2023/05/28 07:16:11;;;;;;;14.85;5.32;;;;;;;;;;4954564;29;20031;-76
2023/05/28 07:18:37;;;;;;;17.60;4.90;;;;;;;;;;4957247;28;20385;-74
2023/05/28 07:21:05;;;;;;;18.77;4.60;;;;;;;;;;4952537;28;20057;-75
2023/05/28 07:23:31;;;;;;;16.27;5.78;;;;;;;;;;4960133;28;20127;-75
2023/05/28 07:25:57;;;;;;;13.10;5.57;;;;;;;;;;4956180;28;20045;-75
2023/05/28 07:28:23;;;;;;;15.63;4.97;;;;;;;;;;4969062;28;20042;-76
2023/05/28 07:30:50;;;;;;;10.75;4.32;;;;;;;;;;4944050;29;20043;-77
2023/05/28 07:33:16;;;;;;;9.25;4.15;;;;;;;;;;4938862;28;20035;-77
2023/05/28 07:35:42;;;;;;;15.68;6.50;;;;;;;;;;4959552;28;20105;-75
2023/05/28 07:38:10;;;;;;;10.75;3.78;;;;;;;;;;4939031;28;20107;-75
2023/05/28 07:40:36;;;;;;;11.30;4.68;;;;;;;;;;4942762;28;20027;-76
2023/05/28 07:43:03;;;;;;;11.93;4.57;;;;;;;;;;4939743;28;20024;-76
2023/05/28 07:45:29;;;;;;;9.57;4.10;;;;;;;;;;4943924;28;20149;-77
2023/05/28 07:47:55;;;;;;;12.20;4.35;;;;;;;;;;4941068;28;20140;-76
2023/05/28 07:50:21;;;;;;;7.72;4.00;;;;;;;;;;4941364;29;20070;-75
2023/05/28 07:52:47;;;;;;;9.80;4.03;;;;;;;;;;4941311;28;20073;-74
2023/05/28 07:55:13;;;;;;;5.63;3.28;;;;;;;;;;4946917;28;20035;-75
2023/05/28 07:57:39;;;;;;;8.15;4.30;;;;;;;;;;4943462;28;20043;-75
2023/05/28 08:00:06;;;;;;;7.43;3.90;;;;;;;;;;4939635;28;20404;-75
2023/05/28 08:02:33;;;;;;;6.70;3.78;;;;;;;;;;4940116;28;20560;-74
2023/05/28 08:05:00;;;;;;;7.65;4.45;;;;;;;;;;4941565;28;20489;-75
2023/05/28 08:07:28;;;;;;;9.25;3.67;;;;;;;;;;4939482;28;20047;-75
2023/05/28 08:09:54;;;;;;;7.68;4.30;;;;;;;;;;4938062;28;20409;-75
2023/05/28 08:12:20;;;;;;;5.95;4.05;;;;;;;;;;4945662;28;20071;-76
2023/05/28 08:14:46;;;;;;;9.98;4.22;;;;;;;;;;4953659;28;20066;-74
2023/05/28 08:17:12;;;;;;;9.63;4.70;;;;;;;;;;4944577;28;20067;-76
2023/05/28 08:19:38;;;;;;;11.80;5.25;;;;;;;;;;4952165;28;20090;-76
2023/05/28 08:22:05;;;;;;;7.30;3.83;;;;;;;;;;4954829;28;20057;-75
2023/05/28 08:24:31;;;;;;;6.75;3.65;;;;;;;;;;4958749;28;20524;-74
2023/05/28 08:26:57;;;;;;;6.75;4.10;;;;;;;;;;4939467;28;20036;-73
2023/05/28 08:29:23;;;;;;;8.23;4.18;;;;;;;;;;4951358;28;20376;-73
2023/05/28 08:31:49;;;;;;;6.78;4.07;;;;;;;;;;4953779;29;20035;-74
2023/05/28 08:34:16;;;;;;;8.13;3.97;;;;;;;;;;4946795;28;20043;-76
2023/05/28 08:36:42;;;;;;;6.45;3.67;;;;;;;;;;4925974;28;20055;-73
2023/05/28 08:39:09;;;;;;;8.48;3.88;;;;;;;;;;4938415;28;20039;-74
2023/05/28 08:41:35;;;;;;;9.48;4.25;;;;;;;;;;4939146;28;20039;-73
2023/05/28 08:44:01;;;;;;;8.27;3.50;;;;;;;;;;4938549;28;21340;-73
2023/05/28 08:46:28;;;;;;;6.85;3.63;;;;;;;;;;4953074;28;20039;-74
2023/05/28 08:48:54;;;;;;;6.18;4.10;;;;;;;;;;4938245;28;20044;-74
2023/05/28 08:51:21;;;;;;;6.72;3.90;;;;;;;;;;4944573;28;20046;-75
2023/05/28 08:53:47;;;;;;;5.35;3.70;;;;;;;;;;4956786;28;20095;-75
2023/05/28 08:56:13;;;;;;;7.40;3.80;;;;;;;;;;4941324;28;20031;-75
2023/05/28 08:58:40;;;;;;;6.40;3.83;;;;;;;;;;4953420;29;20107;-73
2023/05/28 09:01:06;;;;;;;6.93;3.70;;;;;;;;;;4958376;28;20039;-74
2023/05/28 09:03:33;;;;;;;7.13;4.20;;;;;;;;;;4955127;28;20036;-77
2023/05/28 09:05:59;;;;;;;6.95;3.92;;;;;;;;;;4951846;28;20539;-77
2023/05/28 09:08:25;;;;;;;8.68;3.97;;;;;;;;;;4936560;28;20039;-77
2023/05/28 09:10:51;;;;;;;7.45;4.13;;;;;;;;;;4940981;28;20071;-79
2023/05/28 09:13:21;;;;;;;9.25;4.13;;;;;;;;;;4942289;29;20030;-77
2023/05/28 09:15:50;;;;;;;7.90;4.30;;;;;;;;;;4941673;28;20414;-77
2023/05/28 09:18:20;;;;;;;10.10;4.50;;;;;;;;;;4942772;28;20027;-74
2023/05/28 09:20:46;;;;;;;6.97;4.20;;;;;;;;;;4939516;28;20122;-75
2023/05/28 09:23:12;;;;;;;7.60;5.28;;;;;;;;;;4942028;28;20470;-75
2023/05/28 09:25:38;;;;;;;8.55;5.07;;;;;;;;;;4941169;28;20063;-76
2023/05/28 09:28:04;;;;;;;8.70;4.72;;;;;;;;;;4940753;28;20497;-75
2023/05/28 09:30:35;;;;;;;12.55;6.15;;;;;;;;;;4941565;28;20027;-83
2023/05/28 09:33:05;;;;;;;8.43;5.55;;;;;;;;;;4941519;28;20047;-78
2023/05/28 09:35:32;;;;;;;7.85;5.18;;;;;;;;;;4940007;28;20113;-75
2023/05/28 09:38:02;;;;;;;9.27;6.00;;;;;;;;;;4942255;28;20421;-74
2023/05/28 09:40:28;;;;;;;11.43;6.10;;;;;;;;;;4941130;28;20581;-74
2023/05/28 09:42:54;;;;;;;7.57;4.68;;;;;;;;;;4942741;29;20031;-74
2023/05/28 09:45:25;;;;;;;7.10;5.28;;;;;;;;;;4939902;28;20027;-74
2023/05/28 09:47:51;;;;;;;10.45;5.28;;;;;;;;;;4942262;28;20038;-74
2023/05/28 09:50:17;;;;;;;7.47;5.35;;;;;;;;;;4940727;28;20028;-73
2023/05/28 09:53:08;;;;;;;8.32;6.07;;;;;;;;;;4925412;29;20046;-73
2023/05/28 09:55:35;;;;;;;12.13;7.65;;;;;;;;;;4947528;28;20307;-74
2023/05/28 09:58:03;;;;;;;9.45;6.10;;;;;;;;;;4942644;28;20039;-75
2023/05/28 10:00:36;;;;;;;8.60;6.00;;;;;;;;;;4942343;28;20031;-75
2023/05/28 10:03:09;;;;;;;9.18;6.55;;;;;;;;;;4943328;29;20059;-75
2023/05/28 10:05:37;;;;;;;9.30;6.38;;;;;;;;;;4952682;28;20034;-75
2023/05/28 10:08:04;;;;;;;8.55;6.10;;;;;;;;;;4952145;29;20027;-76
2023/05/28 10:10:32;;;;;;;9.88;6.65;;;;;;;;;;4950141;28;20114;-75
2023/05/28 10:12:58;;;;;;;11.43;6.88;;;;;;;;;;4947974;28;20050;-75
2023/05/28 10:15:24;;;;;;;9.88;6.78;;;;;;;;;;4952748;28;20400;-75
2023/05/28 10:17:51;;;;;;;10.25;6.57;;;;;;;;;;4945685;28;20027;-75
2023/05/28 10:20:18;;;;;;;12.02;7.10;;;;;;;;;;4942909;29;20196;-75
2023/05/28 10:22:44;;;;;;;10.30;7.60;;;;;;;;;;4950435;28;20039;-75
2023/05/28 10:25:11;;;;;;;11.70;6.13;;;;;;;;;;4950178;28;20034;-76
2023/05/28 10:27:38;;;;;;;10.88;6.38;;;;;;;;;;4944172;28;20147;-78
2023/05/28 10:30:04;;;;;;;11.40;6.97;;;;;;;;;;4944950;28;20045;-79
2023/05/28 10:32:37;;;;;;;9.82;7.47;;;;;;;;;;4943118;28;20055;-84
2023/05/28 10:35:04;;;;;;;9.02;6.45;;;;;;;;;;4941698;28;20035;-76
2023/05/28 10:37:30;;;;;;;9.10;6.50;;;;;;;;;;4939797;28;20053;-76
2023/05/28 10:39:56;;;;;;;10.20;5.47;;;;;;;;;;4940989;28;20397;-75
2023/05/28 10:42:22;;;;;;;8.80;5.07;;;;;;;;;;4945039;28;20043;-75
2023/05/28 10:45:00;;;;;;;5.80;4.28;;;;;;;;;;4940677;28;20036;-75
2023/05/28 10:47:33;;;;;;;8.02;4.85;;;;;;;;;;4944048;28;20034;-75
2023/05/28 10:50:08;;;;;;;6.57;4.68;;;;;;;;;;4958963;28;20031;-75
2023/05/28 10:52:35;;;;;;;6.00;4.18;;;;;;;;;;4944041;28;20075;-74
2023/05/28 10:55:05;;;;;;;4.40;3.35;;;;;;;;;;4944105;28;20035;-76
2023/05/28 10:57:41;;;;;;;6.07;3.83;;;;;;;;;;4943858;28;20027;-76
2023/05/28 11:00:12;;;;;;;7.32;4.15;;;;;;;;;;4954451;28;20027;-76
2023/05/28 11:02:39;;;;;;;5.25;3.03;;;;;;;;;;4957364;28;20046;-75
2023/05/28 11:05:05;;;;;;;7.95;2.90;;;;;;;;;;4958155;28;20038;-75
2023/05/28 11:07:35;;;;;;;6.40;2.90;;;;;;;;;;4963976;28;20063;-75
2023/05/28 11:10:01;;;;;;;6.28;2.80;;;;;;;;;;4947872;28;20113;-75
2023/05/28 11:12:27;;;;;;;7.75;3.13;;;;;;;;;;4942033;28;20362;-75
2023/05/28 11:14:53;;;;;;;7.75;3.10;;;;;;;;;;4940362;28;20070;-75
2023/05/28 11:17:20;;;;;;;8.50;3.10;;;;;;;;;;4947235;28;20062;-75
2023/05/28 11:19:47;;;;;;;9.68;3.13;;;;;;;;;;4949871;28;20067;-75
2023/05/28 11:22:14;;;;;;;6.88;2.88;;;;;;;;;;4944913;28;20110;-75
2023/05/28 11:24:59;;;;;;;5.43;2.53;;;;;;;;;;4942539;28;20059;-75
2023/05/28 11:27:30;;;;;;;6.13;2.45;;;;;;;;;;4943119;28;20110;-75
2023/05/28 11:29:58;;;;;;;6.28;3.35;;;;;;;;;;4942911;28;20077;-75
2023/05/28 11:32:25;;;;;;;5.40;3.03;;;;;;;;;;4945277;28;20040;-75
2023/05/28 11:34:52;;;;;;;6.57;2.80;;;;;;;;;;4943544;28;20133;-75
2023/05/28 11:37:24;;;;;;;8.60;3.08;;;;;;;;;;4943986;28;20043;-75
2023/05/28 11:39:51;;;;;;;6.95;2.70;;;;;;;;;;4942553;28;20035;-74
2023/05/28 11:42:17;;;;;;;5.95;2.58;;;;;;;;;;4944786;28;20042;-75
2023/05/28 11:44:44;;;;;;;4.78;2.72;;;;;;;;;;4959021;28;20062;-75
2023/05/28 11:47:10;;;;;;;6.78;2.63;;;;;;;;;;4947370;28;20047;-75
2023/05/28 11:49:37;;;;;;;7.60;3.03;;;;;;;;;;4947472;28;20039;-75
2023/05/28 11:52:03;;;;;;;4.78;2.40;;;;;;;;;;4937255;28;20051;-75
2023/05/28 11:54:29;;;;;;;6.70;3.38;;;;;;;;;;4939168;28;20028;-76
2023/05/28 11:56:55;;;;;;;6.82;2.92;;;;;;;;;;4939077;28;20119;-75
2023/05/28 11:59:25;;;;;;;8.80;2.88;;;;;;;;;;4942596;28;20457;-79
2023/05/28 12:01:51;;;;;;;13.07;3.13;;;;;;;;;;4945014;28;20478;-75
2023/05/28 12:04:23;;;;;;;7.18;2.72;;;;;;;;;;4948238;28;20047;-74
2023/05/28 12:06:49;;;;;;;;;;;;;;;;;;4944325;28;20107;-75
2023/05/28 12:09:15;;;;;;;5.55;3.10;;;;;;;;;;4947246;28;19997;-74
2023/05/28 12:11:41;;;;;;;10.32;3.50;;;;;;;;;;4935476;28;20052;-76
2023/05/28 12:14:16;;;;;;;10.95;3.22;;;;;;;;;;4941409;28;20035;-75
2023/05/28 12:16:47;;;;;;;7.03;3.03;;;;;;;;;;4943249;28;20086;-75
2023/05/28 12:19:15;;;;;;;10.52;3.83;;;;;;;;;;4946200;28;20396;-76
2023/05/28 12:21:41;;;;;;;10.23;4.03;;;;;;;;;;4942930;28;20075;-75
2023/05/28 12:24:16;;;;;;;9.80;3.70;;;;;;;;;;4942505;28;20408;-75
2023/05/28 12:26:43;;;;;;;9.65;2.95;;;;;;;;;;4944021;28;20401;-73
2023/05/28 12:29:09;;;;;;;8.88;3.42;;;;;;;;;;4937390;28;20842;-76
2023/05/28 12:31:35;;;;;;;8.18;3.45;;;;;;;;;;4940272;28;20050;-73
2023/05/28 12:34:01;;;;;;;11.20;3.40;;;;;;;;;;4945012;28;20093;-73
2023/05/28 12:36:27;;;;;;;7.47;3.35;;;;;;;;;;4941550;28;20420;-74
2023/05/28 12:38:53;;;;;;;7.80;3.30;;;;;;;;;;4936416;28;20276;-75
2023/05/28 12:41:20;;;;;;;16.08;4.05;;;;;;;;;;4941004;28;20042;-76
2023/05/28 12:43:46;;;;;;;14.25;4.88;;;;;;;;;;4969490;28;20038;-75
2023/05/28 12:46:12;;;;;;;14.25;4.28;;;;;;;;;;4953257;28;20046;-75
2023/05/28 12:48:38;;;;;;;10.57;3.08;;;;;;;;;;4952230;28;20043;-78
2023/05/28 12:51:04;;;;;;;15.50;3.78;;;;;;;;;;4943766;28;20141;-75
2023/05/28 12:53:30;;;;;;;14.80;3.92;;;;;;;;;;4942879;28;20584;-73
2023/05/28 12:55:56;;;;;;;8.70;2.60;;;;;;;;;;4940855;28;20079;-77
2023/05/28 12:58:23;;;;;;;15.50;3.83;;;;;;;;;;4946430;28;20086;-76
2023/05/28 13:00:49;;;;;;;9.00;3.20;;;;;;;;;;4946177;28;20023;-78
2023/05/28 13:03:15;;;;;;;13.40;3.10;;;;;;;;;;4945387;28;20362;-74
2023/05/28 13:05:41;;;;;;;10.18;3.45;;;;;;;;;;4952525;28;20113;-73
2023/05/28 13:08:07;;;;;;;10.18;3.70;;;;;;;;;;4943398;29;20031;-74
2023/05/28 13:10:33;;;;;;;9.25;2.90;;;;;;;;;;4953012;28;20054;-73
2023/05/28 13:12:59;;;;;;;11.07;3.05;;;;;;;;;;4953734;29;20477;-75
2023/05/28 13:15:26;;;;;;;6.80;2.72;;;;;;;;;;4943538;28;20043;-72
2023/05/28 13:17:52;;;;;;;9.18;2.60;;;;;;;;;;4956511;28;20050;-74
2023/05/28 13:20:18;;;;;;;10.10;3.58;;;;;;;;;;4935524;29;20482;-75
2023/05/28 13:22:44;;;;;;;8.48;2.28;;;;;;;;;;4951830;29;20642;-75
2023/05/28 13:25:11;;;;;;;11.10;2.63;;;;;;;;;;4950721;28;20046;-74
2023/05/28 13:27:37;;;;;;;7.15;2.90;;;;;;;;;;4952248;28;20031;-75
2023/05/28 13:30:03;;;;;;;8.68;3.03;;;;;;;;;;4959701;28;20049;-77
2023/05/28 13:32:29;;;;;;;13.63;3.22;;;;;;;;;;4952908;29;20126;-75
2023/05/28 13:34:55;;;;;;;9.82;3.65;;;;;;;;;;4961770;28;20079;-76
2023/05/28 13:37:21;;;;;;;10.30;2.90;;;;;;;;;;4951535;28;20524;-75
2023/05/28 13:39:48;;;;;;;9.98;4.20;;;;;;;;;;4953368;29;20031;-75
2023/05/28 13:42:19;;;;;;;9.70;3.35;;;;;;;;;;4955785;28;20075;-76
2023/05/28 13:44:45;;;;;;;9.00;2.78;;;;;;;;;;4953430;29;20034;-78
2023/05/28 13:47:11;;;;;;;9.02;2.90;;;;;;;;;;4948692;29;20024;-75
2023/05/28 13:49:37;;;;;;;7.60;2.78;;;;;;;;;;4937011;29;20023;-74
2023/05/28 13:52:03;;;;;;;8.07;2.28;;;;;;;;;;4951279;28;20033;-75
2023/05/28 13:54:30;;;;;;;8.38;2.92;;;;;;;;;;4952215;28;20039;-73
2023/05/28 13:56:56;;;;;;;14.63;3.75;;;;;;;;;;4952604;28;20054;-74
2023/05/28 13:59:22;;;;;;;12.10;2.80;;;;;;;;;;4952718;29;20236;-75
2023/05/28 14:01:48;;;;;;;7.80;2.60;;;;;;;;;;4952704;29;20450;-75
2023/05/28 14:04:14;;;;;;;12.77;3.15;;;;;;;;;;4936212;28;20441;-76
2023/05/28 14:06:40;;;;;;;10.00;3.13;;;;;;;;;;4952795;29;20038;-76
2023/05/28 14:09:06;;;;;;;10.38;2.63;;;;;;;;;;4952486;28;20028;-76
2023/05/28 14:11:32;;;;;;;10.45;2.72;;;;;;;;;;4952580;29;20099;-75
2023/05/28 14:13:58;;;;;;;13.82;3.08;;;;;;;;;;4949115;28;20030;-75
2023/05/28 14:16:24;;;;;;;11.88;3.65;;;;;;;;;;4946672;28;20059;-74
2023/05/28 14:18:50;;;;;;;6.75;2.55;;;;;;;;;;4951381;29;20081;-75
2023/05/28 14:21:16;;;;;;;10.15;2.75;;;;;;;;;;4950987;29;20512;-74
2023/05/28 14:23:42;;;;;;;8.48;2.35;;;;;;;;;;4946183;29;20043;-75
2023/05/28 14:26:08;;;;;;;13.48;3.15;;;;;;;;;;4949360;28;20032;-75
2023/05/28 14:28:34;;;;;;;15.35;5.80;;;;;;;;;;4966926;28;20035;-76
2023/05/28 14:31:00;;;;;;;13.13;4.22;;;;;;;;;;4951075;29;20480;-77